createdAt,value
2022-11-14T00:00:32.284Z,101878.78
2022-11-14T00:03:07.356Z,101875.16
2022-11-14T00:05:41.549Z,101859.66
2022-11-14T00:08:19.628Z,101868.69
2022-11-14T00:10:50.797Z,101859.13
2022-11-14T00:13:22.507Z,101855.81
2022-11-14T00:15:54.473Z,101845.34
2022-11-14T00:18:27.248Z,101848.97
2022-11-14T00:20:57.210Z,101841.81
2022-11-14T00:23:26.924Z,101852.28
2022-11-14T00:25:56.632Z,101846.34
2022-11-14T00:28:26.495Z,101834.97
2022-11-14T00:30:56.247Z,101833.38
2022-11-14T00:33:28.618Z,101822.91
2022-11-14T00:35:59.556Z,101822.19
2022-11-14T00:38:29.549Z,101821.47
2022-11-14T00:40:59.480Z,101806.69
2022-11-14T00:43:29.645Z,101807.69
2022-11-14T00:45:59.370Z,101811.31
2022-11-14T00:48:32.022Z,101803.53
2022-11-14T00:51:01.999Z,101799.13
2022-11-14T00:53:31.751Z,101801.81
2022-11-14T00:56:01.512Z,101799.19
2022-11-14T00:58:31.445Z,101798.59
2022-11-14T01:01:01.554Z,101796.88
2022-11-14T01:03:33.970Z,101790.84
2022-11-14T01:06:08.347Z,101785.69
2022-11-14T01:08:38.611Z,101779.53
2022-11-14T01:11:13.556Z,101778.66
2022-11-14T01:13:43.329Z,101777.03
2022-11-14T01:16:13.652Z,101775.22
2022-11-14T01:18:45.982Z,101777.03
2022-11-14T01:21:17.127Z,101776.31
2022-11-14T01:23:46.829Z,101773.88
2022-11-14T01:26:17.626Z,101769.72
2022-11-14T01:28:47.314Z,101769.72
2022-11-14T01:31:19.561Z,101759.19
2022-11-14T01:33:54.932Z,101754.00
2022-11-14T01:36:25.119Z,101753.41
2022-11-14T01:38:56.496Z,101750.06
2022-11-14T01:41:26.231Z,101752.84
2022-11-14T01:43:55.911Z,101743.50
2022-11-14T01:46:29.211Z,101746.47
2022-11-14T01:49:06.429Z,101740.50
2022-11-14T01:51:41.050Z,101745.84
2022-11-14T01:54:17.038Z,101731.09
2022-11-14T01:56:51.810Z,101727.69
2022-11-14T01:59:25.355Z,101719.81
2022-11-14T02:01:58.140Z,101711.78
2022-11-14T02:04:33.574Z,101702.03
2022-11-14T02:07:06.469Z,101699.88
2022-11-14T02:09:39.814Z,101694.47
2022-11-14T02:12:13.078Z,101699.69
2022-11-14T02:14:45.373Z,101698.75
2022-11-14T02:17:29.673Z,101695.19
2022-11-14T02:20:09.139Z,101693.53
2022-11-14T02:22:38.933Z,101690.91
2022-11-14T02:25:09.971Z,101694.63
2022-11-14T02:27:42.254Z,101682.72
2022-11-14T02:30:15.661Z,101675.94
2022-11-14T02:33:09.420Z,101678.72
2022-11-14T02:35:39.068Z,101676.31
2022-11-14T02:38:08.857Z,101660.47
2022-11-14T02:40:38.556Z,101667.53
2022-11-14T02:43:08.308Z,101656.06
2022-11-14T02:45:38.040Z,101647.13
2022-11-14T02:48:08.615Z,101652.34
2022-11-14T02:50:41.471Z,101652.53
2022-11-14T02:53:11.203Z,101656.97
2022-11-14T02:55:40.912Z,101648.28
2022-11-14T02:58:10.606Z,101643.03
2022-11-14T03:00:59.164Z,101635.13
2022-11-14T03:03:30.180Z,101627.25
2022-11-14T03:06:05.820Z,101634.13
2022-11-14T03:08:35.861Z,101627.16
2022-11-14T03:11:08.051Z,101634.19
2022-11-14T03:13:38.297Z,101622.91
2022-11-14T03:16:10.260Z,101615.22
2022-11-14T03:18:39.983Z,101617.78
2022-11-14T03:21:13.912Z,101614.44
2022-11-14T03:23:44.393Z,101610.81
2022-11-14T03:26:16.806Z,101596.72
2022-11-14T03:28:46.926Z,101596.84
2022-11-14T03:31:17.398Z,101596.84
2022-11-14T03:33:47.248Z,101605.59
2022-11-14T03:36:19.759Z,101603.88
2022-11-14T03:38:49.476Z,101592.50
2022-11-14T03:41:19.195Z,101589.66
2022-11-14T03:43:48.894Z,101594.91
2022-11-14T03:46:18.607Z,101592.13
2022-11-14T03:48:48.290Z,101588.63
2022-11-14T03:51:20.672Z,101589.34
2022-11-14T03:53:50.368Z,101577.06
2022-11-14T03:56:20.091Z,101583.22
2022-11-14T03:58:49.822Z,101582.22
2022-11-14T04:01:19.600Z,101582.47
2022-11-14T04:03:49.433Z,101577.06
2022-11-14T04:06:21.877Z,101580.59
2022-11-14T04:08:52.029Z,101577.25
2022-11-14T04:11:22.291Z,101579.03
2022-11-14T04:13:51.979Z,101583.47
2022-11-14T04:16:21.690Z,101576.50
2022-11-14T04:18:51.419Z,101574.78
2022-11-14T04:21:23.738Z,101570.53
2022-11-14T04:23:53.451Z,101566.31
2022-11-14T04:26:23.148Z,101560.06
2022-11-14T04:28:52.843Z,101560.88
2022-11-14T04:31:22.643Z,101557.44
2022-11-14T04:33:52.314Z,101547.97
2022-11-14T04:36:24.632Z,101549.03
2022-11-14T04:38:54.320Z,101559.66
2022-11-14T04:41:24.002Z,101552.75
2022-11-14T04:43:53.717Z,101550.13
2022-11-14T04:46:23.434Z,101546.66
2022-11-14T04:48:53.112Z,101539.72
2022-11-14T04:51:25.442Z,101536.03
2022-11-14T04:53:55.182Z,101534.16
2022-11-14T04:56:25.627Z,101537.66
2022-11-14T04:58:55.344Z,101536.03
2022-11-14T05:01:25.178Z,101526.28
2022-11-14T05:03:54.907Z,101520.88
2022-11-14T05:06:27.223Z,101521.78
2022-11-14T05:08:56.919Z,101519.16
2022-11-14T05:11:29.250Z,101513.19
2022-11-14T05:13:59.207Z,101513.25
2022-11-14T05:16:28.934Z,101508.00
2022-11-14T05:18:58.623Z,101509.84
2022-11-14T05:21:30.923Z,101504.59
2022-11-14T05:24:00.740Z,101498.69
2022-11-14T05:26:30.499Z,101490.03
2022-11-14T05:29:00.274Z,101494.38
2022-11-14T05:31:30.388Z,101498.63
2022-11-14T05:34:00.258Z,101492.50
2022-11-14T05:36:32.601Z,101496.00
2022-11-14T05:39:02.466Z,101484.69
2022-11-14T05:41:32.218Z,101495.44
2022-11-14T05:44:01.903Z,101489.47
2022-11-14T05:46:31.631Z,101480.88
2022-11-14T05:49:01.383Z,101486.94
2022-11-14T05:51:33.744Z,101484.13
2022-11-14T05:54:03.498Z,101490.19
2022-11-14T05:56:33.183Z,101491.66
2022-11-14T05:59:03.113Z,101485.44
2022-11-14T06:01:34.107Z,101500.09
2022-11-14T06:04:03.887Z,101496.38
2022-11-14T06:06:36.328Z,101491.81
2022-11-14T06:09:06.149Z,101495.06
2022-11-14T06:11:35.842Z,101481.09
2022-11-14T06:14:10.502Z,101488.03
2022-11-14T06:16:41.944Z,101497.59
2022-11-14T06:19:11.658Z,101501.94
2022-11-14T06:21:43.932Z,101491.19
2022-11-14T06:24:13.624Z,101493.75
2022-11-14T06:26:43.323Z,101498.81
2022-11-14T06:29:13.590Z,101492.44
2022-11-14T06:31:43.401Z,101495.69
2022-11-14T06:34:14.515Z,101492.06
2022-11-14T06:36:46.802Z,101498.03
2022-11-14T06:39:16.508Z,101504.00
2022-11-14T06:41:46.236Z,101488.84
2022-11-14T06:44:16.499Z,101491.19
2022-11-14T06:46:46.253Z,101492.81
2022-11-14T06:49:15.925Z,101492.81
2022-11-14T06:51:48.261Z,101498.06
2022-11-14T06:54:18.211Z,101505.13
2022-11-14T06:56:48.478Z,101504.28
2022-11-14T06:59:18.166Z,101488.47
2022-11-14T07:01:47.887Z,101492.09
2022-11-14T07:04:17.774Z,101493.81
2022-11-14T07:06:50.200Z,101496.53
2022-11-14T07:09:19.938Z,101494.97
2022-11-14T07:11:49.700Z,101492.38
2022-11-14T07:14:19.452Z,101486.13
2022-11-14T07:16:49.840Z,101494.81
2022-11-14T07:19:19.620Z,101489.59
2022-11-14T07:21:52.192Z,101491.53
2022-11-14T07:24:22.085Z,101491.75
2022-11-14T07:26:52.095Z,101504.16
2022-11-14T07:29:23.135Z,101499.19
2022-11-14T07:31:53.027Z,101498.56
2022-11-14T07:34:23.033Z,101505.59
2022-11-14T07:36:55.573Z,101505.75
2022-11-14T07:39:25.396Z,101509.28
2022-11-14T07:41:55.115Z,101507.75
2022-11-14T07:44:24.856Z,101504.50
2022-11-14T07:46:54.684Z,101507.28
2022-11-14T07:49:24.473Z,101501.31
2022-11-14T07:51:56.899Z,101504.19
2022-11-14T07:54:26.680Z,101504.44
2022-11-14T07:56:56.449Z,101494.19
2022-11-14T07:59:26.179Z,101498.69
2022-11-14T08:01:55.997Z,101485.78
2022-11-14T08:04:26.276Z,101487.41
2022-11-14T08:06:58.732Z,101492.16
2022-11-14T08:09:28.543Z,101490.53
2022-11-14T08:11:58.369Z,101491.28
2022-11-14T08:14:28.194Z,101489.22
2022-11-14T08:16:58.000Z,101481.13
2022-11-14T08:19:27.819Z,101482.59
2022-11-14T08:22:00.189Z,101481.75
2022-11-14T08:24:29.924Z,101487.84
2022-11-14T08:26:59.601Z,101479.81
2022-11-14T08:29:29.388Z,101485.78
2022-11-14T08:32:00.258Z,101490.03
2022-11-14T08:34:30.545Z,101485.28
2022-11-14T08:37:04.347Z,101477.00
2022-11-14T08:39:34.136Z,101489.00
2022-11-14T08:42:04.464Z,101483.59
2022-11-14T08:44:34.252Z,101485.50
2022-11-14T08:47:03.993Z,101481.97
2022-11-14T08:49:33.796Z,101478.47
2022-11-14T08:52:06.471Z,101470.66
2022-11-14T08:54:36.271Z,101465.28
2022-11-14T08:57:06.782Z,101465.13
2022-11-14T08:59:36.553Z,101460.03
2022-11-14T09:02:06.304Z,101463.66
2022-11-14T09:04:36.157Z,101456.78
2022-11-14T09:07:09.213Z,101457.84
2022-11-14T09:09:39.031Z,101460.66
2022-11-14T09:12:09.354Z,101459.91
2022-11-14T09:14:39.090Z,101452.84
2022-11-14T09:17:08.844Z,101451.97
2022-11-14T09:19:38.615Z,101451.13
2022-11-14T09:22:11.352Z,101449.34
2022-11-14T09:24:41.227Z,101455.63
2022-11-14T09:27:10.975Z,101447.97
2022-11-14T09:29:40.817Z,101447.13
2022-11-14T09:32:10.549Z,101449.91
2022-11-14T09:34:43.168Z,101443.03
2022-11-14T09:37:15.799Z,101436.19
2022-11-14T09:39:45.582Z,101434.59
2022-11-14T09:42:31.023Z,101438.22
2022-11-14T09:45:02.496Z,101434.69
2022-11-14T09:47:34.231Z,101432.25
2022-11-14T09:50:10.902Z,101430.59
2022-11-14T09:52:47.658Z,101416.66
2022-11-14T09:55:21.442Z,101418.50
2022-11-14T09:57:52.568Z,101410.78
2022-11-14T10:00:24.272Z,101417.91
2022-11-14T10:03:06.272Z,101411.69
2022-11-14T10:05:48.582Z,101407.28
2022-11-14T10:08:37.818Z,101405.31
2022-11-14T10:11:13.154Z,101406.03
2022-11-14T10:14:02.983Z,101421.03
2022-11-14T10:16:41.449Z,101414.63
2022-11-14T10:19:21.639Z,101408.41
2022-11-14T10:22:09.415Z,101406.47
2022-11-14T10:25:04.088Z,101400.50
2022-11-14T10:27:39.472Z,101402.38
2022-11-14T10:30:15.000Z,101402.59
2022-11-14T10:32:59.674Z,101395.56
2022-11-14T10:35:35.359Z,101396.47
2022-11-14T10:38:12.882Z,101395.56
2022-11-14T10:40:48.696Z,101382.47
2022-11-14T10:43:26.851Z,101379.44
2022-11-14T10:46:00.097Z,101381.03
2022-11-14T10:48:34.476Z,101367.75
2022-11-14T10:51:09.470Z,101370.84
2022-11-14T10:53:50.852Z,101361.34
2022-11-14T10:56:23.213Z,101364.81
2022-11-14T10:58:53.108Z,101365.47
2022-11-14T11:01:40.533Z,101350.34
2022-11-14T11:04:16.871Z,101351.88
2022-11-14T11:06:46.816Z,101351.97
2022-11-14T11:09:31.940Z,101348.66
2022-11-14T11:12:06.462Z,101351.38
2022-11-14T11:14:37.477Z,101337.50
2022-11-14T11:17:40.037Z,101330.47
2022-11-14T11:20:32.926Z,101328.75
2022-11-14T11:23:07.391Z,101333.84
2022-11-14T11:25:37.686Z,101321.63
2022-11-14T11:31:09.546Z,101320.38
2022-11-14T11:33:40.540Z,101319.78
2022-11-14T11:36:17.994Z,101322.47
2022-11-14T11:38:50.326Z,101317.25
2022-11-14T11:44:21.949Z,101311.91
2022-11-14T11:46:56.872Z,101297.16
2022-11-14T11:49:35.967Z,101290.28
2022-11-14T11:52:09.895Z,101286.06
2022-11-14T11:54:53.416Z,101277.97
2022-11-14T11:57:36.744Z,101269.28
2022-11-14T12:00:18.088Z,101264.94
2022-11-14T12:02:50.754Z,101264.84
2022-11-14T12:05:27.735Z,101261.47
2022-11-14T12:08:04.627Z,101262.38
2022-11-14T12:10:39.357Z,101268.44
2022-11-14T12:13:35.185Z,101258.81
2022-11-14T12:16:19.897Z,101252.94
2022-11-14T12:19:46.063Z,101239.88
2022-11-14T12:22:41.739Z,101239.88
2022-11-14T12:25:43.932Z,101243.56
2022-11-14T12:28:29.720Z,101227.88
2022-11-14T12:31:03.391Z,101228.81
2022-11-14T12:33:40.251Z,101233.22
2022-11-14T12:36:13.874Z,101222.84
2022-11-14T12:38:49.798Z,101229.31
2022-11-14T12:41:30.076Z,101223.38
2022-11-14T12:44:21.945Z,101225.28
2022-11-14T12:47:16.914Z,101223.88
2022-11-14T12:50:16.390Z,101211.72
2022-11-14T12:52:54.404Z,101203.22
2022-11-14T12:55:57.986Z,101210.56
2022-11-14T12:58:48.235Z,101223.94
2022-11-14T13:01:33.771Z,101226.78
2022-11-14T13:04:19.786Z,101211.28
2022-11-14T13:07:03.040Z,101213.44
2022-11-14T13:09:44.997Z,101203.19
2022-11-14T13:12:43.695Z,101204.28
2022-11-14T13:15:43.496Z,101199.19
2022-11-14T13:18:41.015Z,101194.88
2022-11-14T13:21:33.882Z,101195.03
2022-11-14T13:24:03.634Z,101169.69
2022-11-14T13:26:47.746Z,101160.16
2022-11-14T13:30:00.375Z,101164.66
2022-11-14T13:32:59.944Z,101161.25
2022-11-14T13:35:40.150Z,101164.66
2022-11-14T13:38:37.039Z,101167.22
2022-11-14T13:41:24.565Z,101169.91
2022-11-14T13:44:27.944Z,101160.25
2022-11-14T13:47:18.316Z,101161.97
2022-11-14T13:50:00.112Z,101152.28
2022-11-14T13:52:34.456Z,101175.13
2022-11-14T13:55:05.363Z,101169.00
2022-11-14T13:57:48.438Z,101181.19
2022-11-14T14:00:21.897Z,101188.25
2022-11-14T14:03:19.971Z,101182.16
2022-11-14T14:06:06.526Z,101182.06
2022-11-14T14:09:00.784Z,101180.28
2022-11-14T14:11:43.404Z,101178.44
2022-11-14T14:14:29.181Z,101176.44
2022-11-14T14:17:05.360Z,101179.97
2022-11-14T14:19:49.241Z,101182.59
2022-11-14T14:22:25.636Z,101186.19
2022-11-14T14:25:04.652Z,101175.69
2022-11-14T14:27:56.821Z,101168.78
2022-11-14T14:30:26.875Z,101165.28
2022-11-14T14:33:14.887Z,101161.00
2022-11-14T14:35:54.018Z,101158.25
2022-11-14T14:38:30.045Z,101159.16
2022-11-14T14:41:00.300Z,101162.59
2022-11-14T14:43:34.985Z,101154.78
2022-11-14T14:46:04.967Z,101153.06
2022-11-14T14:48:42.147Z,101144.22
2022-11-14T14:51:16.801Z,101154.72
2022-11-14T14:53:56.211Z,101142.34
2022-11-14T14:56:28.177Z,101133.53
2022-11-14T14:58:58.522Z,101137.81
2022-11-14T15:01:34.737Z,101133.38
2022-11-14T15:04:09.912Z,101131.34
2022-11-14T15:06:41.266Z,101120.69
2022-11-14T15:09:13.592Z,101124.97
2022-11-14T15:11:46.583Z,101119.59
2022-11-14T15:14:19.427Z,101118.63
2022-11-14T15:16:51.174Z,101113.25
2022-11-14T15:19:27.627Z,101114.16
2022-11-14T15:22:10.836Z,101108.78
2022-11-14T15:24:40.608Z,101104.28
2022-11-14T15:27:16.114Z,101092.81
2022-11-14T15:29:48.784Z,101100.56
2022-11-14T15:32:22.308Z,101097.81
2022-11-14T15:35:14.813Z,101095.06
2022-11-14T15:38:28.983Z,101090.47
2022-11-14T15:41:24.339Z,101105.25
2022-11-14T15:44:01.839Z,101105.94
2022-11-14T15:46:40.426Z,101111.84
2022-11-14T15:49:22.521Z,101109.09
2022-11-14T15:51:57.422Z,101099.25
2022-11-14T15:54:30.130Z,101108.72
2022-11-14T15:57:02.037Z,101100.63
2022-11-14T15:59:34.877Z,101103.94
2022-11-14T16:02:09.425Z,101112.50
2022-11-14T16:04:46.013Z,101119.25
2022-11-14T16:07:20.994Z,101124.22
2022-11-14T16:09:50.955Z,101136.38
2022-11-14T16:12:20.675Z,101134.59
2022-11-14T16:14:50.561Z,101136.38
2022-11-14T16:17:21.065Z,101132.78
2022-11-14T16:19:50.780Z,101137.06
2022-11-14T16:22:23.131Z,101135.25
2022-11-14T16:24:53.917Z,101129.13
2022-11-14T16:27:26.787Z,101115.19
2022-11-14T16:29:57.129Z,101117.97
2022-11-14T16:32:33.668Z,101124.22
2022-11-14T16:35:03.396Z,101119.13
2022-11-14T16:37:35.696Z,101123.69
2022-11-14T16:40:05.452Z,101116.78
2022-11-14T16:42:35.265Z,101121.31
2022-11-14T16:45:05.382Z,101123.94
2022-11-14T16:47:35.124Z,101114.44
2022-11-14T16:50:04.811Z,101125.81
2022-11-14T16:52:37.128Z,101117.19
2022-11-14T16:55:07.160Z,101115.53
2022-11-14T16:57:37.224Z,101113.81
2022-11-14T17:00:08.712Z,101107.78
2022-11-14T17:02:38.406Z,101109.66
2022-11-14T17:05:08.693Z,101102.72
2022-11-14T17:07:41.044Z,101095.78
2022-11-14T17:10:11.518Z,101092.13
2022-11-14T17:12:41.227Z,101093.78
2022-11-14T17:15:11.645Z,101087.66
2022-11-14T17:17:41.348Z,101090.28
2022-11-14T17:20:12.430Z,101077.09
2022-11-14T17:22:44.822Z,101065.66
2022-11-14T17:25:14.800Z,101071.66
2022-11-14T17:27:44.526Z,101072.47
2022-11-14T17:30:15.620Z,101075.94
2022-11-14T17:32:45.577Z,101071.50
2022-11-14T17:35:15.876Z,101063.63
2022-11-14T17:37:48.166Z,101067.00
2022-11-14T17:40:18.901Z,101067.91
2022-11-14T17:42:48.620Z,101062.66
2022-11-14T17:45:18.359Z,101066.22
2022-11-14T17:47:48.080Z,101067.00
2022-11-14T17:50:18.762Z,101066.97
2022-11-14T17:52:51.151Z,101058.13
2022-11-14T17:55:20.879Z,101055.50
2022-11-14T17:57:50.625Z,101055.44
2022-11-14T18:00:21.772Z,101051.03
2022-11-14T18:02:52.480Z,101055.22
2022-11-14T18:05:22.304Z,101044.69
2022-11-14T18:07:54.655Z,101043.50
2022-11-14T18:10:24.423Z,101036.19
2022-11-14T18:12:54.150Z,101037.69
2022-11-14T18:15:27.694Z,101024.38
2022-11-14T18:17:57.985Z,101035.56
2022-11-14T18:20:28.240Z,101035.31
2022-11-14T18:23:00.560Z,101043.84
2022-11-14T18:25:31.890Z,101049.72
2022-11-14T18:28:01.575Z,101051.31
2022-11-14T18:30:46.790Z,101040.75
2022-11-14T18:33:17.112Z,101043.31
2022-11-14T18:35:46.920Z,101041.50
2022-11-14T18:38:19.228Z,101036.25
2022-11-14T18:40:55.882Z,101040.53
2022-11-14T18:43:28.585Z,101042.25
2022-11-14T18:45:58.757Z,101036.94
2022-11-14T18:48:28.575Z,101037.78
2022-11-14T18:51:04.127Z,101038.63
2022-11-14T18:53:38.875Z,101028.94
2022-11-14T18:56:10.798Z,101035.06
2022-11-14T18:58:41.518Z,101024.59
2022-11-14T19:01:13.488Z,101022.91
2022-11-14T19:03:45.040Z,101028.13
2022-11-14T19:06:15.795Z,101021.16
2022-11-14T19:08:48.135Z,101014.28
2022-11-14T19:11:32.864Z,101014.34
2022-11-14T19:14:05.099Z,101004.06
2022-11-14T19:16:35.622Z,101011.19
2022-11-14T19:19:06.194Z,101008.63
2022-11-14T19:21:36.465Z,100999.88
2022-11-14T19:24:10.185Z,101006.03
2022-11-14T19:26:39.905Z,101000.69
2022-11-14T19:29:13.540Z,100991.81
2022-11-14T19:31:44.180Z,101002.28
2022-11-14T19:34:14.127Z,100998.78
2022-11-14T19:37:00.810Z,100992.69
2022-11-14T19:39:33.779Z,100987.53
2022-11-14T19:42:03.678Z,100989.41
2022-11-14T19:44:33.672Z,100992.03
2022-11-14T19:47:03.412Z,100991.06
2022-11-14T19:49:33.714Z,100989.94
2022-11-14T19:52:05.247Z,100977.59
2022-11-14T19:54:37.683Z,100975.66
2022-11-14T19:57:07.510Z,100963.09
2022-11-14T19:59:37.200Z,100968.13
2022-11-14T20:02:06.929Z,100982.06
2022-11-14T20:04:37.981Z,100985.44
2022-11-14T20:07:08.058Z,100974.81
2022-11-14T20:09:40.464Z,100969.38
2022-11-14T20:12:10.246Z,100968.34
2022-11-14T20:14:39.980Z,100969.28
2022-11-14T20:17:09.689Z,100970.22
2022-11-14T20:19:39.441Z,100964.03
2022-11-14T20:22:09.350Z,100964.97
2022-11-14T20:24:41.678Z,100968.53
2022-11-14T20:27:11.723Z,100966.00
2022-11-14T20:29:41.458Z,100952.97
2022-11-14T20:32:15.640Z,100964.41
2022-11-14T20:34:45.809Z,100959.25
2022-11-14T20:37:15.512Z,100954.91
2022-11-14T20:39:47.837Z,100958.41
2022-11-14T20:42:17.535Z,100952.38
2022-11-14T20:44:47.284Z,100946.28
2022-11-14T20:47:17.535Z,100947.25
2022-11-14T20:49:47.690Z,100960.44
2022-11-14T20:52:18.863Z,100956.13
2022-11-14T20:54:51.168Z,100946.72
2022-11-14T20:57:20.851Z,100953.09
2022-11-14T20:59:50.785Z,100948.03
2022-11-14T21:02:20.583Z,100955.25
2022-11-14T21:04:50.332Z,100943.13
2022-11-14T21:07:20.297Z,100938.09
2022-11-14T21:10:13.192Z,100935.66
2022-11-14T21:12:48.395Z,100945.56
2022-11-14T21:15:19.318Z,100933.47
2022-11-14T21:17:49.035Z,100942.31
2022-11-14T21:20:19.559Z,100941.56
2022-11-14T21:22:49.297Z,100947.81
2022-11-14T21:25:21.736Z,100947.00
2022-11-14T21:27:51.689Z,100940.03
2022-11-14T21:30:21.583Z,100939.25
2022-11-14T21:32:51.316Z,100940.28
2022-11-14T21:35:21.031Z,100941.25
2022-11-14T21:37:50.752Z,100919.31
2022-11-14T21:40:23.103Z,100933.47
2022-11-14T21:42:52.848Z,100931.72
2022-11-14T21:45:22.574Z,100919.47
2022-11-14T21:47:52.283Z,100914.34
2022-11-14T21:50:22.213Z,100903.00
2022-11-14T21:52:52.079Z,100913.50
2022-11-14T21:55:24.531Z,100906.53
2022-11-14T21:57:57.160Z,100910.97
2022-11-14T22:00:27.232Z,100903.97
2022-11-14T22:03:09.352Z,100901.34
2022-11-14T22:05:39.058Z,100901.44
2022-11-14T22:08:08.902Z,100904.09
2022-11-14T22:10:42.411Z,100909.34
2022-11-14T22:13:12.280Z,100902.44
2022-11-14T22:15:42.263Z,100908.56
2022-11-14T22:18:11.974Z,100910.38
2022-11-14T22:20:41.849Z,100907.00
2022-11-14T22:23:11.579Z,100891.31
2022-11-14T22:25:43.895Z,100900.03
2022-11-14T22:28:13.631Z,100885.19
2022-11-14T22:30:43.444Z,100894.81
2022-11-14T22:33:13.150Z,100897.53
2022-11-14T22:35:42.844Z,100898.56
2022-11-14T22:38:12.586Z,100882.88
2022-11-14T22:40:44.899Z,100883.75
2022-11-14T22:43:14.917Z,100879.47
2022-11-14T22:45:44.636Z,100873.41
2022-11-14T22:48:14.327Z,100877.03
2022-11-14T22:50:44.008Z,100872.69
2022-11-14T22:53:13.755Z,100875.44
2022-11-14T22:55:52.424Z,100872.03
2022-11-14T22:58:22.107Z,100870.44
2022-11-14T23:00:52.732Z,100869.69
2022-11-14T23:03:24.208Z,100872.34
2022-11-14T23:05:53.956Z,100875.13
2022-11-14T23:08:23.827Z,100868.25
2022-11-14T23:10:57.544Z,100871.84
2022-11-14T23:13:27.273Z,100870.94
2022-11-14T23:15:56.984Z,100865.81
2022-11-14T23:18:26.891Z,100857.09
2022-11-14T23:20:56.993Z,100856.31
2022-11-14T23:23:26.887Z,100859.91
2022-11-14T23:25:59.328Z,100851.31
2022-11-14T23:28:29.248Z,100850.47
2022-11-14T23:31:00.284Z,100854.94
2022-11-14T23:33:30.553Z,100856.75
2022-11-14T23:36:00.636Z,100852.44
2022-11-14T23:38:30.733Z,100851.63
2022-11-14T23:41:04.810Z,100852.50
2022-11-14T23:43:34.783Z,100848.22
2022-11-14T23:46:04.663Z,100860.38
2022-11-14T23:48:34.533Z,100853.41
2022-11-14T23:51:04.359Z,100845.59
2022-11-14T23:53:34.508Z,100843.94
2022-11-14T23:56:07.553Z,100847.44
2022-11-14T23:58:37.693Z,100844.81
